CheckWX is a tool to help pilots better visualize weather data.  It is not intended as a substitute for an official pre-flight weather briefing.

02:51:55 UTC

KMGC METAR
Michigan City Municipal-Phillips Field Airport
Michigan City, Indiana, USA
Current

17 mins ago

KMGC 230235Z AUTO 23015G19KT 10SM BKN014 OVC018 21/21 A2985 RMK AO2
Observed
Sep-23 @ 02:35 UTC
Wind
  • 230° at 15 KTS
  • Gusting to 19 KTS
Visibility
10 SM
Flight Rules
MVFR
Cloud Levels
  • Broken at 1,400' AGL
  • Overcast at 1,800' AGL
Temperature
21°C / 70°F
Dewpoint
21°C / 70°F
Humidity
100%
Altimeter
29.85" Hg
Pressure
1010.82 hPa
Previous

37 mins ago

KMGC 230215Z AUTO 23012G23KT 7SM BKN014 OVC020 21/21 A2985 RMK AO2
Observed
Sep-23 @ 02:15 UTC
Wind
  • 230° at 12 KTS
  • Gusting to 23 KTS
Visibility
7 SM
Flight Rules
MVFR
Cloud Levels
  • Broken at 1,400' AGL
  • Overcast at 2,000' AGL
Temperature
21°C / 70°F
Dewpoint
21°C / 70°F
Humidity
100%
Altimeter
29.85" Hg
Pressure
1010.82 hPa
Previous

57 mins ago

KMGC 230155Z AUTO 21014G20KT 7SM -DZ BKN018 OVC022 21/21 A2983 RMK AO2
Observed
Sep-23 @ 01:55 UTC
Wind
  • 210° at 14 KTS
  • Gusting to 20 KTS
Visibility
7 SM
Flight Rules
MVFR
Conditions
Light Drizzle
Cloud Levels
  • Broken at 1,800' AGL
  • Overcast at 2,200' AGL
Temperature
21°C / 70°F
Dewpoint
21°C / 70°F
Humidity
100%
Altimeter
29.83" Hg
Pressure
1010.12 hPa